sensor_id;sensor_type;location;lat;lon;timestamp;temperature;humidity
24164;DHT22;12319;49.204;8.116;2023-04-25T00:01:11;10.20;89.00
24164;DHT22;12319;49.204;8.116;2023-04-25T00:03:39;10.20;89.30
24164;DHT22;12319;49.204;8.116;2023-04-25T00:06:05;10.20;89.80
24164;DHT22;12319;49.204;8.116;2023-04-25T00:08:32;10.20;89.70
24164;DHT22;12319;49.204;8.116;2023-04-25T00:10:58;10.10;89.60
24164;DHT22;12319;49.204;8.116;2023-04-25T00:13:24;10.10;89.60
24164;DHT22;12319;49.204;8.116;2023-04-25T00:15:51;10.10;89.60
24164;DHT22;12319;49.204;8.116;2023-04-25T00:18:18;10.20;89.70
24164;DHT22;12319;49.204;8.116;2023-04-25T00:20:44;10.20;89.70
24164;DHT22;12319;49.204;8.116;2023-04-25T00:23:15;10.20;89.70
24164;DHT22;12319;49.204;8.116;2023-04-25T00:25:45;10.20;89.80
24164;DHT22;12319;49.204;8.116;2023-04-25T00:28:11;10.10;89.60
24164;DHT22;12319;49.204;8.116;2023-04-25T00:30:38;10.10;89.90
24164;DHT22;12319;49.204;8.116;2023-04-25T00:33:05;10.20;90.00
24164;DHT22;12319;49.204;8.116;2023-04-25T00:35:31;10.20;89.90
24164;DHT22;12319;49.204;8.116;2023-04-25T00:37:56;10.30;89.90
24164;DHT22;12319;49.204;8.116;2023-04-25T00:40:22;10.20;90.10
24164;DHT22;12319;49.204;8.116;2023-04-25T00:42:47;10.30;89.60
24164;DHT22;12319;49.204;8.116;2023-04-25T00:45:14;10.30;89.80
24164;DHT22;12319;49.204;8.116;2023-04-25T00:47:43;10.20;90.00
24164;DHT22;12319;49.204;8.116;2023-04-25T00:50:09;10.20;89.80
24164;DHT22;12319;49.204;8.116;2023-04-25T00:52:37;10.20;89.80
24164;DHT22;12319;49.204;8.116;2023-04-25T00:55:04;10.20;89.80
24164;DHT22;12319;49.204;8.116;2023-04-25T00:57:30;10.20;89.70
24164;DHT22;12319;49.204;8.116;2023-04-25T00:59:56;10.20;89.80
24164;DHT22;12319;49.204;8.116;2023-04-25T01:02:21;10.20;89.80
24164;DHT22;12319;49.204;8.116;2023-04-25T01:04:47;10.20;89.90
24164;DHT22;12319;49.204;8.116;2023-04-25T01:07:13;10.20;89.90
24164;DHT22;12319;49.204;8.116;2023-04-25T01:09:39;10.10;89.90
24164;DHT22;12319;49.204;8.116;2023-04-25T01:12:05;10.10;90.00
24164;DHT22;12319;49.204;8.116;2023-04-25T01:14:31;10.10;90.10
24164;DHT22;12319;49.204;8.116;2023-04-25T01:16:56;10.10;90.10
24164;DHT22;12319;49.204;8.116;2023-04-25T01:19:23;10.10;90.20
24164;DHT22;12319;49.204;8.116;2023-04-25T01:21:48;10.10;90.50
24164;DHT22;12319;49.204;8.116;2023-04-25T01:24:15;10.10;90.30
24164;DHT22;12319;49.204;8.116;2023-04-25T01:26:41;10.10;90.30
24164;DHT22;12319;49.204;8.116;2023-04-25T01:29:13;10.10;90.30
24164;DHT22;12319;49.204;8.116;2023-04-25T01:31:39;10.10;90.30
24164;DHT22;12319;49.204;8.116;2023-04-25T01:34:05;10.10;90.20
24164;DHT22;12319;49.204;8.116;2023-04-25T01:36:30;10.10;90.10
24164;DHT22;12319;49.204;8.116;2023-04-25T01:38:56;10.10;90.10
24164;DHT22;12319;49.204;8.116;2023-04-25T01:41:22;10.10;90.10
24164;DHT22;12319;49.204;8.116;2023-04-25T01:43:48;10.10;90.10
24164;DHT22;12319;49.204;8.116;2023-04-25T01:46:14;10.10;90.20
24164;DHT22;12319;49.204;8.116;2023-04-25T01:48:40;10.10;90.20
24164;DHT22;12319;49.204;8.116;2023-04-25T01:51:05;10.20;90.30
24164;DHT22;12319;49.204;8.116;2023-04-25T01:53:31;10.10;90.30
24164;DHT22;12319;49.204;8.116;2023-04-25T01:55:57;10.20;90.40
24164;DHT22;12319;49.204;8.116;2023-04-25T01:58:22;10.20;90.30
24164;DHT22;12319;49.204;8.116;2023-04-25T02:00:48;10.20;90.30
24164;DHT22;12319;49.204;8.116;2023-04-25T02:03:14;10.20;90.20
24164;DHT22;12319;49.204;8.116;2023-04-25T02:05:39;10.30;90.40
24164;DHT22;12319;49.204;8.116;2023-04-25T02:08:07;10.20;90.40
24164;DHT22;12319;49.204;8.116;2023-04-25T02:10:33;10.20;90.40
24164;DHT22;12319;49.204;8.116;2023-04-25T02:12:59;10.30;90.30
24164;DHT22;12319;49.204;8.116;2023-04-25T02:15:24;10.30;90.30
24164;DHT22;12319;49.204;8.116;2023-04-25T02:17:50;10.60;90.50
24164;DHT22;12319;49.204;8.116;2023-04-25T02:20:22;10.30;90.40
24164;DHT22;12319;49.204;8.116;2023-04-25T02:22:48;10.30;90.40
24164;DHT22;12319;49.204;8.116;2023-04-25T02:25:14;10.30;90.40
24164;DHT22;12319;49.204;8.116;2023-04-25T02:27:41;10.30;90.50
24164;DHT22;12319;49.204;8.116;2023-04-25T02:30:08;10.30;90.50
24164;DHT22;12319;49.204;8.116;2023-04-25T02:32:33;10.30;90.50
24164;DHT22;12319;49.204;8.116;2023-04-25T02:35:00;10.30;90.50
24164;DHT22;12319;49.204;8.116;2023-04-25T02:37:29;10.30;90.50
24164;DHT22;12319;49.204;8.116;2023-04-25T02:39:55;10.30;90.60
24164;DHT22;12319;49.204;8.116;2023-04-25T02:42:21;10.30;90.60
24164;DHT22;12319;49.204;8.116;2023-04-25T02:44:46;10.40;90.60
24164;DHT22;12319;49.204;8.116;2023-04-25T02:47:12;10.40;90.50
24164;DHT22;12319;49.204;8.116;2023-04-25T02:49:37;10.30;90.40
24164;DHT22;12319;49.204;8.116;2023-04-25T02:52:03;10.20;90.40
24164;DHT22;12319;49.204;8.116;2023-04-25T02:54:28;10.10;90.40
24164;DHT22;12319;49.204;8.116;2023-04-25T02:56:54;10.10;90.40
24164;DHT22;12319;49.204;8.116;2023-04-25T02:59:19;10.10;90.50
24164;DHT22;12319;49.204;8.116;2023-04-25T03:01:45;10.00;90.50
24164;DHT22;12319;49.204;8.116;2023-04-25T03:04:11;10.00;90.60
24164;DHT22;12319;49.204;8.116;2023-04-25T03:06:36;9.90;91.00
24164;DHT22;12319;49.204;8.116;2023-04-25T03:09:02;9.90;91.10
24164;DHT22;12319;49.204;8.116;2023-04-25T03:11:27;9.90;91.10
24164;DHT22;12319;49.204;8.116;2023-04-25T03:13:53;9.90;91.10
24164;DHT22;12319;49.204;8.116;2023-04-25T03:16:18;9.90;91.20
24164;DHT22;12319;49.204;8.116;2023-04-25T03:18:44;9.80;91.20
24164;DHT22;12319;49.204;8.116;2023-04-25T03:21:09;9.80;91.20
24164;DHT22;12319;49.204;8.116;2023-04-25T03:23:35;9.80;91.30
24164;DHT22;12319;49.204;8.116;2023-04-25T03:26:00;9.90;91.30
24164;DHT22;12319;49.204;8.116;2023-04-25T03:28:26;9.90;91.30
24164;DHT22;12319;49.204;8.116;2023-04-25T03:30:51;9.90;91.20
24164;DHT22;12319;49.204;8.116;2023-04-25T03:33:17;9.90;91.20
24164;DHT22;12319;49.204;8.116;2023-04-25T03:35:43;9.90;91.30
24164;DHT22;12319;49.204;8.116;2023-04-25T03:38:08;9.90;91.20
24164;DHT22;12319;49.204;8.116;2023-04-25T03:40:34;9.60;91.10
24164;DHT22;12319;49.204;8.116;2023-04-25T03:42:59;9.90;91.20
24164;DHT22;12319;49.204;8.116;2023-04-25T03:45:25;10.00;90.70
24164;DHT22;12319;49.204;8.116;2023-04-25T03:47:51;10.00;90.80
24164;DHT22;12319;49.204;8.116;2023-04-25T03:50:16;10.00;90.80
24164;DHT22;12319;49.204;8.116;2023-04-25T03:52:43;10.00;90.80
24164;DHT22;12319;49.204;8.116;2023-04-25T03:55:09;10.10;90.70
24164;DHT22;12319;49.204;8.116;2023-04-25T03:57:34;10.10;90.70
24164;DHT22;12319;49.204;8.116;2023-04-25T04:00:00;10.10;90.70
24164;DHT22;12319;49.204;8.116;2023-04-25T04:02:26;10.10;90.60
24164;DHT22;12319;49.204;8.116;2023-04-25T04:04:51;10.10;90.60
24164;DHT22;12319;49.204;8.116;2023-04-25T04:07:17;10.10;90.60
24164;DHT22;12319;49.204;8.116;2023-04-25T04:09:43;10.10;90.60
24164;DHT22;12319;49.204;8.116;2023-04-25T04:12:08;10.10;90.50
24164;DHT22;12319;49.204;8.116;2023-04-25T04:14:34;10.00;90.60
24164;DHT22;12319;49.204;8.116;2023-04-25T04:16:59;10.00;90.60
24164;DHT22;12319;49.204;8.116;2023-04-25T04:19:25;10.00;90.80
24164;DHT22;12319;49.204;8.116;2023-04-25T04:21:51;9.90;91.10
24164;DHT22;12319;49.204;8.116;2023-04-25T04:24:16;9.90;91.10
24164;DHT22;12319;49.204;8.116;2023-04-25T04:26:42;9.90;91.20
24164;DHT22;12319;49.204;8.116;2023-04-25T04:29:10;9.90;91.30
24164;DHT22;12319;49.204;8.116;2023-04-25T04:31:36;10.00;90.90
24164;DHT22;12319;49.204;8.116;2023-04-25T04:34:02;10.00;91.00
24164;DHT22;12319;49.204;8.116;2023-04-25T04:36:29;10.00;91.00
24164;DHT22;12319;49.204;8.116;2023-04-25T04:38:54;10.10;90.90
24164;DHT22;12319;49.204;8.116;2023-04-25T04:41:21;10.10;91.00
24164;DHT22;12319;49.204;8.116;2023-04-25T04:43:47;10.10;91.20
24164;DHT22;12319;49.204;8.116;2023-04-25T04:46:12;10.20;91.00
24164;DHT22;12319;49.204;8.116;2023-04-25T04:48:38;10.30;90.90
24164;DHT22;12319;49.204;8.116;2023-04-25T04:51:05;10.30;90.80
24164;DHT22;12319;49.204;8.116;2023-04-25T04:53:31;10.40;90.80
24164;DHT22;12319;49.204;8.116;2023-04-25T04:55:58;10.50;90.80
24164;DHT22;12319;49.204;8.116;2023-04-25T04:58:23;10.50;90.70
24164;DHT22;12319;49.204;8.116;2023-04-25T05:00:49;10.60;90.60
24164;DHT22;12319;49.204;8.116;2023-04-25T05:03:15;10.60;90.50
24164;DHT22;12319;49.204;8.116;2023-04-25T05:05:41;10.70;90.60
24164;DHT22;12319;49.204;8.116;2023-04-25T05:08:06;10.80;90.50
24164;DHT22;12319;49.204;8.116;2023-04-25T05:10:32;10.90;90.40
24164;DHT22;12319;49.204;8.116;2023-04-25T05:12:58;11.00;90.30
24164;DHT22;12319;49.204;8.116;2023-04-25T05:15:26;11.00;90.30
24164;DHT22;12319;49.204;8.116;2023-04-25T05:17:52;11.10;90.30
24164;DHT22;12319;49.204;8.116;2023-04-25T05:20:17;11.00;90.20
24164;DHT22;12319;49.204;8.116;2023-04-25T05:22:44;11.10;90.20
24164;DHT22;12319;49.204;8.116;2023-04-25T05:25:10;11.10;90.20
24164;DHT22;12319;49.204;8.116;2023-04-25T05:27:35;11.10;90.20
24164;DHT22;12319;49.204;8.116;2023-04-25T05:30:01;11.10;90.20
24164;DHT22;12319;49.204;8.116;2023-04-25T05:32:27;11.20;90.20
24164;DHT22;12319;49.204;8.116;2023-04-25T05:34:52;11.20;90.20
24164;DHT22;12319;49.204;8.116;2023-04-25T05:37:18;11.20;90.20
24164;DHT22;12319;49.204;8.116;2023-04-25T05:39:44;11.20;90.20
24164;DHT22;12319;49.204;8.116;2023-04-25T05:42:09;11.20;90.10
24164;DHT22;12319;49.204;8.116;2023-04-25T05:44:35;11.10;90.20
24164;DHT22;12319;49.204;8.116;2023-04-25T05:47:01;11.10;90.10
24164;DHT22;12319;49.204;8.116;2023-04-25T05:49:26;11.10;90.20
24164;DHT22;12319;49.204;8.116;2023-04-25T05:51:52;10.90;90.10
24164;DHT22;12319;49.204;8.116;2023-04-25T05:54:17;10.80;90.00
24164;DHT22;12319;49.204;8.116;2023-04-25T05:56:43;10.80;90.40
24164;DHT22;12319;49.204;8.116;2023-04-25T05:59:09;10.70;90.40
24164;DHT22;12319;49.204;8.116;2023-04-25T06:01:34;10.70;90.50
24164;DHT22;12319;49.204;8.116;2023-04-25T06:04:00;10.70;90.70
24164;DHT22;12319;49.204;8.116;2023-04-25T06:06:26;10.70;90.80
24164;DHT22;12319;49.204;8.116;2023-04-25T06:08:52;10.70;90.90
24164;DHT22;12319;49.204;8.116;2023-04-25T06:11:18;10.70;90.90
24164;DHT22;12319;49.204;8.116;2023-04-25T06:13:45;10.80;91.20
24164;DHT22;12319;49.204;8.116;2023-04-25T06:16:11;10.90;90.90
24164;DHT22;12319;49.204;8.116;2023-04-25T06:18:36;10.90;91.00
24164;DHT22;12319;49.204;8.116;2023-04-25T06:21:02;11.00;91.20
24164;DHT22;12319;49.204;8.116;2023-04-25T06:23:27;11.00;91.10
24164;DHT22;12319;49.204;8.116;2023-04-25T06:25:53;11.10;91.10
24164;DHT22;12319;49.204;8.116;2023-04-25T06:28:19;11.20;91.20
24164;DHT22;12319;49.204;8.116;2023-04-25T06:30:44;11.20;91.20
24164;DHT22;12319;49.204;8.116;2023-04-25T06:33:10;11.20;91.20
24164;DHT22;12319;49.204;8.116;2023-04-25T06:35:35;11.20;91.30
24164;DHT22;12319;49.204;8.116;2023-04-25T06:38:01;11.30;91.10
24164;DHT22;12319;49.204;8.116;2023-04-25T06:40:27;11.30;91.10
24164;DHT22;12319;49.204;8.116;2023-04-25T06:42:52;11.30;91.10
24164;DHT22;12319;49.204;8.116;2023-04-25T06:45:18;11.40;91.10
24164;DHT22;12319;49.204;8.116;2023-04-25T06:47:43;11.40;91.10
24164;DHT22;12319;49.204;8.116;2023-04-25T06:50:09;11.40;91.10
24164;DHT22;12319;49.204;8.116;2023-04-25T06:52:35;11.30;91.00
24164;DHT22;12319;49.204;8.116;2023-04-25T06:55:01;11.30;91.10
24164;DHT22;12319;49.204;8.116;2023-04-25T06:57:26;11.30;91.00
24164;DHT22;12319;49.204;8.116;2023-04-25T06:59:52;11.30;91.10
24164;DHT22;12319;49.204;8.116;2023-04-25T07:02:18;11.30;91.10
24164;DHT22;12319;49.204;8.116;2023-04-25T07:04:43;11.20;91.10
24164;DHT22;12319;49.204;8.116;2023-04-25T07:07:10;11.20;91.10
24164;DHT22;12319;49.204;8.116;2023-04-25T07:09:35;11.20;91.20
24164;DHT22;12319;49.204;8.116;2023-04-25T07:12:01;11.20;91.10
24164;DHT22;12319;49.204;8.116;2023-04-25T07:14:27;11.20;91.20
24164;DHT22;12319;49.204;8.116;2023-04-25T07:16:53;11.20;91.30
24164;DHT22;12319;49.204;8.116;2023-04-25T07:19:18;11.20;91.60
24164;DHT22;12319;49.204;8.116;2023-04-25T07:21:44;11.30;91.50
24164;DHT22;12319;49.204;8.116;2023-04-25T07:24:09;11.30;91.60
24164;DHT22;12319;49.204;8.116;2023-04-25T07:26:35;11.40;91.60
24164;DHT22;12319;49.204;8.116;2023-04-25T07:29:01;11.40;91.50
24164;DHT22;12319;49.204;8.116;2023-04-25T07:31:26;11.40;91.60
24164;DHT22;12319;49.204;8.116;2023-04-25T07:33:52;11.40;91.60
24164;DHT22;12319;49.204;8.116;2023-04-25T07:36:18;11.40;91.80
24164;DHT22;12319;49.204;8.116;2023-04-25T07:38:43;11.50;91.60
24164;DHT22;12319;49.204;8.116;2023-04-25T07:41:09;11.60;91.80
24164;DHT22;12319;49.204;8.116;2023-04-25T07:43:35;11.60;91.80
24164;DHT22;12319;49.204;8.116;2023-04-25T07:46:00;11.70;91.80
24164;DHT22;12319;49.204;8.116;2023-04-25T07:48:26;11.70;91.80
24164;DHT22;12319;49.204;8.116;2023-04-25T07:50:51;11.70;91.60
24164;DHT22;12319;49.204;8.116;2023-04-25T07:53:17;11.80;91.50
24164;DHT22;12319;49.204;8.116;2023-04-25T07:55:43;11.80;91.40
24164;DHT22;12319;49.204;8.116;2023-04-25T07:58:09;11.70;91.20
24164;DHT22;12319;49.204;8.116;2023-04-25T08:00:35;11.70;91.10
24164;DHT22;12319;49.204;8.116;2023-04-25T08:03:01;11.70;91.20
24164;DHT22;12319;49.204;8.116;2023-04-25T08:05:26;11.80;91.60
24164;DHT22;12319;49.204;8.116;2023-04-25T08:07:52;11.80;91.30
24164;DHT22;12319;49.204;8.116;2023-04-25T08:10:17;11.80;91.30
24164;DHT22;12319;49.204;8.116;2023-04-25T08:12:43;12.00;91.40
24164;DHT22;12319;49.204;8.116;2023-04-25T08:15:09;11.90;91.30
24164;DHT22;12319;49.204;8.116;2023-04-25T08:17:34;11.90;91.40
24164;DHT22;12319;49.204;8.116;2023-04-25T08:20:00;11.80;91.50
24164;DHT22;12319;49.204;8.116;2023-04-25T08:22:26;11.80;91.40
24164;DHT22;12319;49.204;8.116;2023-04-25T08:24:51;11.70;91.40
24164;DHT22;12319;49.204;8.116;2023-04-25T08:27:18;11.60;91.30
24164;DHT22;12319;49.204;8.116;2023-04-25T08:29:44;11.50;91.00
24164;DHT22;12319;49.204;8.116;2023-04-25T08:32:09;11.30;90.70
24164;DHT22;12319;49.204;8.116;2023-04-25T08:34:35;11.20;90.60
24164;DHT22;12319;49.204;8.116;2023-04-25T08:37:02;11.20;90.60
24164;DHT22;12319;49.204;8.116;2023-04-25T08:39:29;11.10;90.60
24164;DHT22;12319;49.204;8.116;2023-04-25T08:41:55;11.00;90.70
24164;DHT22;12319;49.204;8.116;2023-04-25T08:44:22;11.00;90.80
24164;DHT22;12319;49.204;8.116;2023-04-25T08:46:49;10.90;90.90
24164;DHT22;12319;49.204;8.116;2023-04-25T08:49:17;10.90;91.20
24164;DHT22;12319;49.204;8.116;2023-04-25T08:51:45;10.90;91.20
24164;DHT22;12319;49.204;8.116;2023-04-25T08:54:15;11.00;91.10
24164;DHT22;12319;49.204;8.116;2023-04-25T08:56:44;11.00;91.30
24164;DHT22;12319;49.204;8.116;2023-04-25T08:59:13;11.00;91.20
24164;DHT22;12319;49.204;8.116;2023-04-25T09:01:39;11.00;90.90
24164;DHT22;12319;49.204;8.116;2023-04-25T09:04:05;11.00;90.80
24164;DHT22;12319;49.204;8.116;2023-04-25T09:06:31;11.00;90.90
24164;DHT22;12319;49.204;8.116;2023-04-25T09:09:05;11.00;90.80
24164;DHT22;12319;49.204;8.116;2023-04-25T09:11:31;11.00;90.70
24164;DHT22;12319;49.204;8.116;2023-04-25T09:14:30;10.90;90.60
24164;DHT22;12319;49.204;8.116;2023-04-25T09:19:29;10.80;90.80
24164;DHT22;12319;49.204;8.116;2023-04-25T09:21:56;10.80;91.00
24164;DHT22;12319;49.204;8.116;2023-04-25T09:24:41;10.80;91.20
24164;DHT22;12319;49.204;8.116;2023-04-25T09:27:21;10.70;91.10
24164;DHT22;12319;49.204;8.116;2023-04-25T09:29:57;10.70;91.20
24164;DHT22;12319;49.204;8.116;2023-04-25T09:32:25;10.70;91.30
24164;DHT22;12319;49.204;8.116;2023-04-25T09:34:55;10.80;91.40
24164;DHT22;12319;49.204;8.116;2023-04-25T09:37:26;10.80;91.50
24164;DHT22;12319;49.204;8.116;2023-04-25T09:39:55;10.80;91.30
24164;DHT22;12319;49.204;8.116;2023-04-25T09:42:24;10.80;91.50
24164;DHT22;12319;49.204;8.116;2023-04-25T09:44:52;10.80;91.20
24164;DHT22;12319;49.204;8.116;2023-04-25T09:47:19;10.80;91.20
24164;DHT22;12319;49.204;8.116;2023-04-25T09:49:47;10.80;91.30
24164;DHT22;12319;49.204;8.116;2023-04-25T09:52:17;10.80;91.50
24164;DHT22;12319;49.204;8.116;2023-04-25T09:54:44;10.80;91.20
24164;DHT22;12319;49.204;8.116;2023-04-25T09:57:19;10.90;91.40
24164;DHT22;12319;49.204;8.116;2023-04-25T09:59:53;11.00;91.60
24164;DHT22;12319;49.204;8.116;2023-04-25T10:02:21;11.00;91.30
24164;DHT22;12319;49.204;8.116;2023-04-25T10:04:54;11.10;91.10
24164;DHT22;12319;49.204;8.116;2023-04-25T10:07:22;11.10;91.10
24164;DHT22;12319;49.204;8.116;2023-04-25T10:09:59;11.20;91.10
24164;DHT22;12319;49.204;8.116;2023-04-25T10:12:26;11.20;91.10
24164;DHT22;12319;49.204;8.116;2023-04-25T10:14:52;11.20;91.20
24164;DHT22;12319;49.204;8.116;2023-04-25T10:17:20;11.20;91.30
24164;DHT22;12319;49.204;8.116;2023-04-25T10:19:47;11.20;91.20
24164;DHT22;12319;49.204;8.116;2023-04-25T10:22:26;11.20;91.10
24164;DHT22;12319;49.204;8.116;2023-04-25T10:24:55;11.20;91.20
24164;DHT22;12319;49.204;8.116;2023-04-25T10:27:22;11.20;91.10
24164;DHT22;12319;49.204;8.116;2023-04-25T10:30:10;11.20;91.30
24164;DHT22;12319;49.204;8.116;2023-04-25T10:32:37;11.20;91.30
24164;DHT22;12319;49.204;8.116;2023-04-25T10:35:17;11.10;91.30
24164;DHT22;12319;49.204;8.116;2023-04-25T10:40:27;11.00;91.60
24164;DHT22;12319;49.204;8.116;2023-04-25T10:42:53;11.10;91.80
24164;DHT22;12319;49.204;8.116;2023-04-25T10:45:20;11.10;92.00
24164;DHT22;12319;49.204;8.116;2023-04-25T10:47:46;11.20;92.00
24164;DHT22;12319;49.204;8.116;2023-04-25T10:50:14;11.40;92.20
24164;DHT22;12319;49.204;8.116;2023-04-25T10:52:41;11.50;92.30
24164;DHT22;12319;49.204;8.116;2023-04-25T10:55:07;11.70;92.00
24164;DHT22;12319;49.204;8.116;2023-04-25T11:00:12;12.00;91.60
24164;DHT22;12319;49.204;8.116;2023-04-25T11:02:52;12.20;91.50
24164;DHT22;12319;49.204;8.116;2023-04-25T11:05:35;12.30;91.40
24164;DHT22;12319;49.204;8.116;2023-04-25T11:08:01;12.40;90.70
24164;DHT22;12319;49.204;8.116;2023-04-25T11:10:30;12.40;90.60
24164;DHT22;12319;49.204;8.116;2023-04-25T11:12:57;12.30;90.50
24164;DHT22;12319;49.204;8.116;2023-04-25T11:15:22;12.30;90.60
24164;DHT22;12319;49.204;8.116;2023-04-25T11:17:50;12.30;90.80
24164;DHT22;12319;49.204;8.116;2023-04-25T11:20:16;12.40;90.70
24164;DHT22;12319;49.204;8.116;2023-04-25T11:22:41;12.40;90.40
24164;DHT22;12319;49.204;8.116;2023-04-25T11:25:10;12.50;90.50
24164;DHT22;12319;49.204;8.116;2023-04-25T11:27:52;12.60;90.40
24164;DHT22;12319;49.204;8.116;2023-04-25T11:30:18;12.80;90.10
24164;DHT22;12319;49.204;8.116;2023-04-25T11:32:44;13.00;90.20
24164;DHT22;12319;49.204;8.116;2023-04-25T11:35:10;13.10;90.20
24164;DHT22;12319;49.204;8.116;2023-04-25T11:37:36;13.20;90.00
24164;DHT22;12319;49.204;8.116;2023-04-25T11:40:04;13.30;89.90
24164;DHT22;12319;49.204;8.116;2023-04-25T11:42:32;13.40;90.00
24164;DHT22;12319;49.204;8.116;2023-04-25T11:44:58;13.50;89.20
24164;DHT22;12319;49.204;8.116;2023-04-25T11:47:31;13.60;88.80
24164;DHT22;12319;49.204;8.116;2023-04-25T11:50:03;13.70;87.90
24164;DHT22;12319;49.204;8.116;2023-04-25T11:52:41;13.70;88.40
24164;DHT22;12319;49.204;8.116;2023-04-25T11:55:15;13.80;88.00
24164;DHT22;12319;49.204;8.116;2023-04-25T11:57:42;13.90;88.30
24164;DHT22;12319;49.204;8.116;2023-04-25T12:00:13;14.00;87.60
24164;DHT22;12319;49.204;8.116;2023-04-25T12:02:55;14.10;87.00
24164;DHT22;12319;49.204;8.116;2023-04-25T12:05:24;14.20;87.30
24164;DHT22;12319;49.204;8.116;2023-04-25T12:07:50;14.30;85.60
24164;DHT22;12319;49.204;8.116;2023-04-25T12:10:17;14.50;85.80
24164;DHT22;12319;49.204;8.116;2023-04-25T12:12:45;14.70;86.00
24164;DHT22;12319;49.204;8.116;2023-04-25T12:15:16;14.90;84.50
24164;DHT22;12319;49.204;8.116;2023-04-25T12:17:50;15.10;84.60
24164;DHT22;12319;49.204;8.116;2023-04-25T12:20:21;15.40;84.70
24164;DHT22;12319;49.204;8.116;2023-04-25T12:22:49;15.80;83.40
24164;DHT22;12319;49.204;8.116;2023-04-25T12:25:40;16.20;82.80
24164;DHT22;12319;49.204;8.116;2023-04-25T12:28:20;16.50;82.30
24164;DHT22;12319;49.204;8.116;2023-04-25T12:31:00;16.60;81.40
24164;DHT22;12319;49.204;8.116;2023-04-25T12:33:29;16.50;80.60
24164;DHT22;12319;49.204;8.116;2023-04-25T12:35:55;16.30;80.70
24164;DHT22;12319;49.204;8.116;2023-04-25T12:38:28;16.10;79.70
24164;DHT22;12319;49.204;8.116;2023-04-25T12:40:59;15.80;79.30
24164;DHT22;12319;49.204;8.116;2023-04-25T12:43:25;15.50;79.30
24164;DHT22;12319;49.204;8.116;2023-04-25T12:45:52;15.20;79.60
24164;DHT22;12319;49.204;8.116;2023-04-25T12:48:19;14.90;79.80
24164;DHT22;12319;49.204;8.116;2023-04-25T12:50:45;14.70;80.50
24164;DHT22;12319;49.204;8.116;2023-04-25T12:53:14;14.40;80.40
24164;DHT22;12319;49.204;8.116;2023-04-25T12:55:40;14.20;81.20
24164;DHT22;12319;49.204;8.116;2023-04-25T12:58:05;14.00;81.90
24164;DHT22;12319;49.204;8.116;2023-04-25T13:00:31;13.80;82.40
24164;DHT22;12319;49.204;8.116;2023-04-25T13:02:57;13.80;82.50
24164;DHT22;12319;49.204;8.116;2023-04-25T13:05:22;13.80;82.50
24164;DHT22;12319;49.204;8.116;2023-04-25T13:07:48;13.90;82.70
24164;DHT22;12319;49.204;8.116;2023-04-25T13:10:14;14.00;82.70
24164;DHT22;12319;49.204;8.116;2023-04-25T13:12:39;14.20;82.20
24164;DHT22;12319;49.204;8.116;2023-04-25T13:15:05;14.30;81.20
24164;DHT22;12319;49.204;8.116;2023-04-25T13:17:32;14.30;80.80
24164;DHT22;12319;49.204;8.116;2023-04-25T13:19:58;14.40;80.60
24164;DHT22;12319;49.204;8.116;2023-04-25T13:22:23;14.40;80.70
24164;DHT22;12319;49.204;8.116;2023-04-25T13:24:49;14.40;80.90
24164;DHT22;12319;49.204;8.116;2023-04-25T13:27:14;14.40;80.90
24164;DHT22;12319;49.204;8.116;2023-04-25T13:29:40;14.40;81.00
24164;DHT22;12319;49.204;8.116;2023-04-25T13:32:06;14.50;81.00
24164;DHT22;12319;49.204;8.116;2023-04-25T13:34:32;14.50;81.00
24164;DHT22;12319;49.204;8.116;2023-04-25T13:36:58;14.50;81.10
24164;DHT22;12319;49.204;8.116;2023-04-25T13:39:23;14.60;81.10
24164;DHT22;12319;49.204;8.116;2023-04-25T13:41:49;14.70;80.10
24164;DHT22;12319;49.204;8.116;2023-04-25T13:44:14;14.60;79.10
24164;DHT22;12319;49.204;8.116;2023-04-25T13:46:40;14.60;79.80
24164;DHT22;12319;49.204;8.116;2023-04-25T13:49:06;14.70;79.40
24164;DHT22;12319;49.204;8.116;2023-04-25T13:51:31;14.60;79.60
24164;DHT22;12319;49.204;8.116;2023-04-25T13:53:57;14.60;80.20
24164;DHT22;12319;49.204;8.116;2023-04-25T13:56:23;14.60;79.70
24164;DHT22;12319;49.204;8.116;2023-04-25T13:58:50;14.50;79.60
24164;DHT22;12319;49.204;8.116;2023-04-25T14:01:15;14.50;79.70
24164;DHT22;12319;49.204;8.116;2023-04-25T14:03:41;14.40;79.50
24164;DHT22;12319;49.204;8.116;2023-04-25T14:06:07;14.30;80.00
24164;DHT22;12319;49.204;8.116;2023-04-25T14:08:34;14.30;80.20
24164;DHT22;12319;49.204;8.116;2023-04-25T14:11:00;14.30;80.10
24164;DHT22;12319;49.204;8.116;2023-04-25T14:13:26;14.40;80.20
24164;DHT22;12319;49.204;8.116;2023-04-25T14:15:52;14.40;79.40
24164;DHT22;12319;49.204;8.116;2023-04-25T14:18:18;14.40;79.60
24164;DHT22;12319;49.204;8.116;2023-04-25T14:20:44;14.20;79.40
24164;DHT22;12319;49.204;8.116;2023-04-25T14:23:10;14.30;79.80
24164;DHT22;12319;49.204;8.116;2023-04-25T14:25:35;14.10;79.80
24164;DHT22;12319;49.204;8.116;2023-04-25T14:28:01;13.90;80.00
24164;DHT22;12319;49.204;8.116;2023-04-25T14:30:27;14.00;80.60
24164;DHT22;12319;49.204;8.116;2023-04-25T14:32:54;13.70;80.80
24164;DHT22;12319;49.204;8.116;2023-04-25T14:35:19;13.60;80.90
24164;DHT22;12319;49.204;8.116;2023-04-25T14:37:46;13.60;81.10
24164;DHT22;12319;49.204;8.116;2023-04-25T14:40:12;13.60;81.70
24164;DHT22;12319;49.204;8.116;2023-04-25T14:42:40;13.60;81.80
24164;DHT22;12319;49.204;8.116;2023-04-25T14:45:07;13.60;81.80
24164;DHT22;12319;49.204;8.116;2023-04-25T14:47:36;13.60;81.70
24164;DHT22;12319;49.204;8.116;2023-04-25T14:50:02;13.50;82.30
24164;DHT22;12319;49.204;8.116;2023-04-25T14:52:28;13.40;82.50
24164;DHT22;12319;49.204;8.116;2023-04-25T14:54:54;13.30;82.70
24164;DHT22;12319;49.204;8.116;2023-04-25T14:57:19;13.20;83.10
24164;DHT22;12319;49.204;8.116;2023-04-25T14:59:45;13.10;83.20
24164;DHT22;12319;49.204;8.116;2023-04-25T15:02:11;13.00;83.60
24164;DHT22;12319;49.204;8.116;2023-04-25T15:04:37;12.90;83.90
24164;DHT22;12319;49.204;8.116;2023-04-25T15:07:02;12.80;84.20
24164;DHT22;12319;49.204;8.116;2023-04-25T15:09:29;12.70;85.10
24164;DHT22;12319;49.204;8.116;2023-04-25T15:11:54;12.60;85.10
24164;DHT22;12319;49.204;8.116;2023-04-25T15:14:20;12.60;85.30
24164;DHT22;12319;49.204;8.116;2023-04-25T15:16:45;12.60;86.20
24164;DHT22;12319;49.204;8.116;2023-04-25T15:19:11;12.50;86.60
24164;DHT22;12319;49.204;8.116;2023-04-25T15:21:37;12.50;86.80
24164;DHT22;12319;49.204;8.116;2023-04-25T15:24:02;12.50;86.80
24164;DHT22;12319;49.204;8.116;2023-04-25T15:26:28;12.50;87.00
24164;DHT22;12319;49.204;8.116;2023-04-25T15:28:54;12.50;86.90
24164;DHT22;12319;49.204;8.116;2023-04-25T15:31:19;12.60;87.10
24164;DHT22;12319;49.204;8.116;2023-04-25T15:33:45;12.70;86.90
24164;DHT22;12319;49.204;8.116;2023-04-25T15:36:11;12.70;86.80
24164;DHT22;12319;49.204;8.116;2023-04-25T15:38:37;12.80;86.40